Krain, Washington
Current Conditions -  °F | °C
As of 7:53 PM on Saturday 20 Dec 2014 (Local Time) from KRNT Reporting Station
Light Rain Light Rain  
Wind Chill: 56°   Ceiling: 1400
Heat Index: 56°   Visibility: 10mi
Dew Point: 53°   Wind: 13mph
Humidity: 90%   Direction: 170°S
Pressure: 29.47"   Gusts: 22mph
Location:  47.1782°N, 121.641°W
Report Text: KRNT 210353Z AUTO 17011G19KT 10SM -RA OVC014 13/12 A2947 RMK AO2 RAE18B50 SLP984 P0000 T01330117 $
Loading
Personal Weather Stations






























Interactive Weather Map New forecast layout! Learn more

10-Day Weather Forecast

Advertisements
Track Severe Weather on mobile